sensor_id;sensor_type;location;lat;lon;timestamp;P1;durP1;ratioP1;P2;durP2;ratioP2
54935;SDS011;40838;50.676;7.838;2022-12-10T00:01:33;55.90;;;25.45;;
54935;SDS011;40838;50.676;7.838;2022-12-10T00:04:02;46.40;;;18.55;;
54935;SDS011;40838;50.676;7.838;2022-12-10T00:06:30;41.38;;;19.05;;
54935;SDS011;40838;50.676;7.838;2022-12-10T00:08:59;43.58;;;20.15;;
54935;SDS011;40838;50.676;7.838;2022-12-10T00:11:26;47.15;;;20.33;;
54935;SDS011;40838;50.676;7.838;2022-12-10T00:13:54;51.08;;;21.88;;
54935;SDS011;40838;50.676;7.838;2022-12-10T00:16:21;44.38;;;19.75;;
54935;SDS011;40838;50.676;7.838;2022-12-10T00:18:51;48.50;;;20.40;;
54935;SDS011;40838;50.676;7.838;2022-12-10T00:21:19;52.30;;;21.85;;
54935;SDS011;40838;50.676;7.838;2022-12-10T00:23:48;41.97;;;19.17;;
54935;SDS011;40838;50.676;7.838;2022-12-10T00:26:16;33.80;;;16.00;;
54935;SDS011;40838;50.676;7.838;2022-12-10T00:28:45;36.03;;;15.45;;
54935;SDS011;40838;50.676;7.838;2022-12-10T00:31:13;43.03;;;17.85;;
54935;SDS011;40838;50.676;7.838;2022-12-10T00:33:41;36.55;;;15.55;;
54935;SDS011;40838;50.676;7.838;2022-12-10T00:36:11;40.63;;;17.13;;
54935;SDS011;40838;50.676;7.838;2022-12-10T00:38:39;37.28;;;16.75;;
54935;SDS011;40838;50.676;7.838;2022-12-10T00:41:07;36.67;;;16.60;;
54935;SDS011;40838;50.676;7.838;2022-12-10T00:43:34;35.50;;;14.90;;
54935;SDS011;40838;50.676;7.838;2022-12-10T00:46:02;34.67;;;16.13;;
54935;SDS011;40838;50.676;7.838;2022-12-10T00:48:30;36.92;;;15.55;;
54935;SDS011;40838;50.676;7.838;2022-12-10T00:50:57;40.95;;;16.70;;
54935;SDS011;40838;50.676;7.838;2022-12-10T00:53:29;45.88;;;18.00;;
54935;SDS011;40838;50.676;7.838;2022-12-10T00:55:57;42.92;;;17.77;;
54935;SDS011;40838;50.676;7.838;2022-12-10T00:58:26;42.13;;;18.95;;
54935;SDS011;40838;50.676;7.838;2022-12-10T01:00:54;44.17;;;18.52;;
54935;SDS011;40838;50.676;7.838;2022-12-10T01:03:22;40.38;;;16.95;;
54935;SDS011;40838;50.676;7.838;2022-12-10T01:05:49;38.85;;;17.13;;
54935;SDS011;40838;50.676;7.838;2022-12-10T01:08:16;41.70;;;18.02;;
54935;SDS011;40838;50.676;7.838;2022-12-10T01:10:44;47.50;;;18.55;;
54935;SDS011;40838;50.676;7.838;2022-12-10T01:13:11;37.97;;;17.63;;
54935;SDS011;40838;50.676;7.838;2022-12-10T01:15:38;41.25;;;19.20;;
54935;SDS011;40838;50.676;7.838;2022-12-10T01:18:05;44.67;;;18.25;;
54935;SDS011;40838;50.676;7.838;2022-12-10T01:20:34;40.28;;;16.88;;
54935;SDS011;40838;50.676;7.838;2022-12-10T01:23:02;39.90;;;17.08;;
54935;SDS011;40838;50.676;7.838;2022-12-10T01:25:31;38.75;;;17.27;;
54935;SDS011;40838;50.676;7.838;2022-12-10T01:28:00;39.28;;;16.33;;
54935;SDS011;40838;50.676;7.838;2022-12-10T01:30:27;39.88;;;16.05;;
54935;SDS011;40838;50.676;7.838;2022-12-10T01:32:54;39.05;;;16.42;;
54935;SDS011;40838;50.676;7.838;2022-12-10T01:35:21;39.20;;;16.63;;
54935;SDS011;40838;50.676;7.838;2022-12-10T01:37:47;48.45;;;19.95;;
54935;SDS011;40838;50.676;7.838;2022-12-10T01:40:14;39.70;;;18.67;;
54935;SDS011;40838;50.676;7.838;2022-12-10T01:42:44;34.33;;;17.00;;
54935;SDS011;40838;50.676;7.838;2022-12-10T01:45:14;39.92;;;17.58;;
54935;SDS011;40838;50.676;7.838;2022-12-10T01:47:48;40.17;;;17.55;;
54935;SDS011;40838;50.676;7.838;2022-12-10T01:50:14;34.28;;;16.42;;
54935;SDS011;40838;50.676;7.838;2022-12-10T01:52:41;39.50;;;16.10;;
54935;SDS011;40838;50.676;7.838;2022-12-10T01:58:08;34.95;;;15.48;;
54935;SDS011;40838;50.676;7.838;2022-12-10T02:00:41;34.35;;;15.65;;
54935;SDS011;40838;50.676;7.838;2022-12-10T02:03:16;37.63;;;16.48;;
54935;SDS011;40838;50.676;7.838;2022-12-10T02:05:51;40.67;;;17.60;;
54935;SDS011;40838;50.676;7.838;2022-12-10T02:08:27;37.22;;;16.30;;
54935;SDS011;40838;50.676;7.838;2022-12-10T02:11:03;37.58;;;17.20;;
54935;SDS011;40838;50.676;7.838;2022-12-10T02:13:39;36.42;;;15.77;;
54935;SDS011;40838;50.676;7.838;2022-12-10T02:16:12;35.97;;;15.77;;
54935;SDS011;40838;50.676;7.838;2022-12-10T02:18:43;38.95;;;16.70;;
54935;SDS011;40838;50.676;7.838;2022-12-10T02:21:16;34.67;;;15.70;;
54935;SDS011;40838;50.676;7.838;2022-12-10T02:23:48;31.98;;;14.25;;
54935;SDS011;40838;50.676;7.838;2022-12-10T02:26:22;29.88;;;13.30;;
54935;SDS011;40838;50.676;7.838;2022-12-10T02:29:01;30.10;;;13.73;;
54935;SDS011;40838;50.676;7.838;2022-12-10T02:31:33;29.90;;;14.85;;
54935;SDS011;40838;50.676;7.838;2022-12-10T02:34:03;36.28;;;13.68;;
54935;SDS011;40838;50.676;7.838;2022-12-10T02:36:35;30.83;;;13.52;;
54935;SDS011;40838;50.676;7.838;2022-12-10T02:39:07;29.52;;;13.85;;
54935;SDS011;40838;50.676;7.838;2022-12-10T02:41:46;32.38;;;13.90;;
54935;SDS011;40838;50.676;7.838;2022-12-10T02:44:17;31.67;;;14.05;;
54935;SDS011;40838;50.676;7.838;2022-12-10T02:46:47;34.72;;;14.07;;
54935;SDS011;40838;50.676;7.838;2022-12-10T02:49:17;33.97;;;15.38;;
54935;SDS011;40838;50.676;7.838;2022-12-10T02:51:44;32.33;;;13.88;;
54935;SDS011;40838;50.676;7.838;2022-12-10T02:57:00;33.30;;;14.32;;
54935;SDS011;40838;50.676;7.838;2022-12-10T02:59:38;36.22;;;15.02;;
54935;SDS011;40838;50.676;7.838;2022-12-10T03:02:15;28.58;;;14.18;;
54935;SDS011;40838;50.676;7.838;2022-12-10T03:04:46;35.75;;;14.73;;
54935;SDS011;40838;50.676;7.838;2022-12-10T03:07:22;37.00;;;16.35;;
54935;SDS011;40838;50.676;7.838;2022-12-10T03:09:55;29.95;;;13.75;;
54935;SDS011;40838;50.676;7.838;2022-12-10T03:12:25;35.08;;;14.75;;
54935;SDS011;40838;50.676;7.838;2022-12-10T03:14:58;32.33;;;13.57;;
54935;SDS011;40838;50.676;7.838;2022-12-10T03:17:27;35.25;;;14.40;;
54935;SDS011;40838;50.676;7.838;2022-12-10T03:19:57;35.50;;;14.55;;
54935;SDS011;40838;50.676;7.838;2022-12-10T03:22:26;35.90;;;15.32;;
54935;SDS011;40838;50.676;7.838;2022-12-10T03:24:54;33.70;;;15.27;;
54935;SDS011;40838;50.676;7.838;2022-12-10T03:27:23;36.92;;;15.27;;
54935;SDS011;40838;50.676;7.838;2022-12-10T03:29:51;34.80;;;14.75;;
54935;SDS011;40838;50.676;7.838;2022-12-10T03:32:22;33.03;;;14.13;;
54935;SDS011;40838;50.676;7.838;2022-12-10T03:34:53;39.05;;;17.85;;
54935;SDS011;40838;50.676;7.838;2022-12-10T03:37:23;38.22;;;15.50;;
54935;SDS011;40838;50.676;7.838;2022-12-10T03:39:51;36.67;;;16.50;;
54935;SDS011;40838;50.676;7.838;2022-12-10T03:42:22;39.85;;;18.13;;
54935;SDS011;40838;50.676;7.838;2022-12-10T03:44:50;35.85;;;15.20;;
54935;SDS011;40838;50.676;7.838;2022-12-10T03:47:17;32.13;;;14.82;;
54935;SDS011;40838;50.676;7.838;2022-12-10T03:49:47;33.78;;;15.23;;
54935;SDS011;40838;50.676;7.838;2022-12-10T03:52:14;39.45;;;17.02;;
54935;SDS011;40838;50.676;7.838;2022-12-10T03:54:41;33.00;;;14.52;;
54935;SDS011;40838;50.676;7.838;2022-12-10T03:57:08;32.63;;;14.43;;
54935;SDS011;40838;50.676;7.838;2022-12-10T03:59:36;30.98;;;15.68;;
54935;SDS011;40838;50.676;7.838;2022-12-10T04:02:03;30.85;;;14.20;;
54935;SDS011;40838;50.676;7.838;2022-12-10T04:04:30;35.50;;;15.55;;
54935;SDS011;40838;50.676;7.838;2022-12-10T04:07:07;29.45;;;14.73;;
54935;SDS011;40838;50.676;7.838;2022-12-10T04:09:34;36.85;;;15.00;;
54935;SDS011;40838;50.676;7.838;2022-12-10T04:12:01;38.50;;;15.27;;
54935;SDS011;40838;50.676;7.838;2022-12-10T04:14:29;35.65;;;16.50;;
54935;SDS011;40838;50.676;7.838;2022-12-10T04:17:30;45.17;;;15.68;;
54935;SDS011;40838;50.676;7.838;2022-12-10T04:19:57;39.50;;;16.55;;
54935;SDS011;40838;50.676;7.838;2022-12-10T04:22:26;37.22;;;15.05;;
54935;SDS011;40838;50.676;7.838;2022-12-10T04:25:11;36.45;;;17.13;;
54935;SDS011;40838;50.676;7.838;2022-12-10T04:27:56;37.67;;;15.68;;
54935;SDS011;40838;50.676;7.838;2022-12-10T04:30:23;31.27;;;15.18;;
54935;SDS011;40838;50.676;7.838;2022-12-10T04:32:50;34.10;;;14.73;;
54935;SDS011;40838;50.676;7.838;2022-12-10T04:35:17;40.08;;;17.10;;
54935;SDS011;40838;50.676;7.838;2022-12-10T04:37:45;30.95;;;14.70;;
54935;SDS011;40838;50.676;7.838;2022-12-10T04:40:12;30.98;;;14.55;;
54935;SDS011;40838;50.676;7.838;2022-12-10T04:42:39;34.55;;;15.32;;
54935;SDS011;40838;50.676;7.838;2022-12-10T04:45:06;35.17;;;15.70;;
54935;SDS011;40838;50.676;7.838;2022-12-10T04:47:33;38.70;;;15.95;;
54935;SDS011;40838;50.676;7.838;2022-12-10T04:50:00;33.80;;;14.90;;
54935;SDS011;40838;50.676;7.838;2022-12-10T04:52:27;31.70;;;15.40;;
54935;SDS011;40838;50.676;7.838;2022-12-10T04:54:55;35.90;;;16.02;;
54935;SDS011;40838;50.676;7.838;2022-12-10T04:57:22;40.22;;;15.75;;
54935;SDS011;40838;50.676;7.838;2022-12-10T04:59:49;35.10;;;14.10;;
54935;SDS011;40838;50.676;7.838;2022-12-10T05:02:16;45.90;;;16.55;;
54935;SDS011;40838;50.676;7.838;2022-12-10T05:04:43;54.17;;;18.10;;
54935;SDS011;40838;50.676;7.838;2022-12-10T05:07:10;48.03;;;17.15;;
54935;SDS011;40838;50.676;7.838;2022-12-10T05:09:37;53.17;;;18.17;;
54935;SDS011;40838;50.676;7.838;2022-12-10T05:12:05;46.65;;;17.58;;
54935;SDS011;40838;50.676;7.838;2022-12-10T05:14:32;76.63;;;19.42;;
54935;SDS011;40838;50.676;7.838;2022-12-10T05:16:59;96.90;;;21.05;;
54935;SDS011;40838;50.676;7.838;2022-12-10T05:19:26;105.10;;;20.20;;
54935;SDS011;40838;50.676;7.838;2022-12-10T05:21:53;84.82;;;22.80;;
54935;SDS011;40838;50.676;7.838;2022-12-10T05:24:37;67.60;;;19.63;;
54935;SDS011;40838;50.676;7.838;2022-12-10T05:27:05;75.18;;;19.15;;
54935;SDS011;40838;50.676;7.838;2022-12-10T05:29:32;157.02;;;23.30;;
54935;SDS011;40838;50.676;7.838;2022-12-10T05:31:59;125.53;;;17.63;;
54935;SDS011;40838;50.676;7.838;2022-12-10T05:34:27;103.85;;;21.48;;
54935;SDS011;40838;50.676;7.838;2022-12-10T05:36:53;110.75;;;20.45;;
54935;SDS011;40838;50.676;7.838;2022-12-10T05:39:20;124.78;;;21.67;;
54935;SDS011;40838;50.676;7.838;2022-12-10T05:41:47;280.25;;;26.08;;
54935;SDS011;40838;50.676;7.838;2022-12-10T05:44:15;150.10;;;25.15;;
54935;SDS011;40838;50.676;7.838;2022-12-10T05:46:42;72.07;;;19.02;;
54935;SDS011;40838;50.676;7.838;2022-12-10T05:49:09;61.78;;;20.02;;
54935;SDS011;40838;50.676;7.838;2022-12-10T05:51:36;128.18;;;21.85;;
54935;SDS011;40838;50.676;7.838;2022-12-10T05:54:04;67.72;;;19.67;;
54935;SDS011;40838;50.676;7.838;2022-12-10T05:56:34;65.25;;;19.27;;
54935;SDS011;40838;50.676;7.838;2022-12-10T05:59:02;55.30;;;17.55;;
54935;SDS011;40838;50.676;7.838;2022-12-10T06:01:32;47.97;;;17.90;;
54935;SDS011;40838;50.676;7.838;2022-12-10T06:04:00;43.33;;;15.95;;
54935;SDS011;40838;50.676;7.838;2022-12-10T06:06:29;52.08;;;16.15;;
54935;SDS011;40838;50.676;7.838;2022-12-10T06:08:58;44.00;;;15.63;;
54935;SDS011;40838;50.676;7.838;2022-12-10T06:11:26;49.58;;;17.05;;
54935;SDS011;40838;50.676;7.838;2022-12-10T06:13:56;52.20;;;17.52;;
54935;SDS011;40838;50.676;7.838;2022-12-10T06:16:23;51.05;;;17.65;;
54935;SDS011;40838;50.676;7.838;2022-12-10T06:18:53;41.22;;;15.52;;
54935;SDS011;40838;50.676;7.838;2022-12-10T06:21:20;70.47;;;17.85;;
54935;SDS011;40838;50.676;7.838;2022-12-10T06:23:47;53.05;;;17.52;;
54935;SDS011;40838;50.676;7.838;2022-12-10T06:26:17;63.28;;;19.33;;
54935;SDS011;40838;50.676;7.838;2022-12-10T06:28:45;58.70;;;18.42;;
54935;SDS011;40838;50.676;7.838;2022-12-10T06:31:16;53.65;;;16.95;;
54935;SDS011;40838;50.676;7.838;2022-12-10T06:33:44;56.80;;;18.00;;
54935;SDS011;40838;50.676;7.838;2022-12-10T06:36:13;41.15;;;15.77;;
54935;SDS011;40838;50.676;7.838;2022-12-10T06:38:41;60.92;;;16.45;;
54935;SDS011;40838;50.676;7.838;2022-12-10T06:41:09;45.75;;;16.17;;
54935;SDS011;40838;50.676;7.838;2022-12-10T06:43:38;53.05;;;17.25;;
54935;SDS011;40838;50.676;7.838;2022-12-10T06:46:05;41.13;;;14.18;;
54935;SDS011;40838;50.676;7.838;2022-12-10T06:48:33;45.03;;;16.55;;
54935;SDS011;40838;50.676;7.838;2022-12-10T06:51:01;66.18;;;20.25;;
54935;SDS011;40838;50.676;7.838;2022-12-10T06:53:31;56.30;;;17.77;;
54935;SDS011;40838;50.676;7.838;2022-12-10T06:56:00;90.93;;;19.08;;
54935;SDS011;40838;50.676;7.838;2022-12-10T06:58:28;70.00;;;18.33;;
54935;SDS011;40838;50.676;7.838;2022-12-10T07:01:01;75.38;;;17.98;;
54935;SDS011;40838;50.676;7.838;2022-12-10T07:03:29;65.50;;;18.02;;
54935;SDS011;40838;50.676;7.838;2022-12-10T07:05:56;64.35;;;20.40;;
54935;SDS011;40838;50.676;7.838;2022-12-10T07:08:23;124.03;;;22.67;;
54935;SDS011;40838;50.676;7.838;2022-12-10T07:10:54;52.28;;;16.30;;
54935;SDS011;40838;50.676;7.838;2022-12-10T07:13:21;47.70;;;16.85;;
54935;SDS011;40838;50.676;7.838;2022-12-10T07:15:48;47.80;;;15.68;;
54935;SDS011;40838;50.676;7.838;2022-12-10T07:18:15;41.88;;;15.77;;
54935;SDS011;40838;50.676;7.838;2022-12-10T07:20:41;47.10;;;15.30;;
54935;SDS011;40838;50.676;7.838;2022-12-10T07:23:10;41.90;;;14.85;;
54935;SDS011;40838;50.676;7.838;2022-12-10T07:25:37;46.53;;;17.05;;
54935;SDS011;40838;50.676;7.838;2022-12-10T07:28:05;82.88;;;21.95;;
54935;SDS011;40838;50.676;7.838;2022-12-10T07:30:32;180.88;;;27.67;;
54935;SDS011;40838;50.676;7.838;2022-12-10T07:32:59;73.32;;;19.90;;
54935;SDS011;40838;50.676;7.838;2022-12-10T07:35:26;72.20;;;21.35;;
54935;SDS011;40838;50.676;7.838;2022-12-10T07:37:56;59.38;;;19.63;;
54935;SDS011;40838;50.676;7.838;2022-12-10T07:40:26;84.05;;;23.73;;
54935;SDS011;40838;50.676;7.838;2022-12-10T07:42:53;82.57;;;24.45;;
54935;SDS011;40838;50.676;7.838;2022-12-10T07:45:21;71.38;;;21.30;;
54935;SDS011;40838;50.676;7.838;2022-12-10T07:47:48;77.10;;;22.75;;
54935;SDS011;40838;50.676;7.838;2022-12-10T07:50:15;64.60;;;21.88;;
54935;SDS011;40838;50.676;7.838;2022-12-10T07:52:43;75.88;;;23.98;;
54935;SDS011;40838;50.676;7.838;2022-12-10T07:55:10;65.00;;;25.35;;
54935;SDS011;40838;50.676;7.838;2022-12-10T07:57:37;62.10;;;22.38;;
54935;SDS011;40838;50.676;7.838;2022-12-10T08:00:04;61.65;;;23.88;;
54935;SDS011;40838;50.676;7.838;2022-12-10T08:02:38;54.72;;;21.20;;
54935;SDS011;40838;50.676;7.838;2022-12-10T08:05:05;57.40;;;21.10;;
54935;SDS011;40838;50.676;7.838;2022-12-10T08:07:32;56.13;;;19.48;;
54935;SDS011;40838;50.676;7.838;2022-12-10T08:09:59;66.07;;;24.42;;
54935;SDS011;40838;50.676;7.838;2022-12-10T08:12:27;76.05;;;27.00;;
54935;SDS011;40838;50.676;7.838;2022-12-10T08:14:53;81.50;;;29.40;;
54935;SDS011;40838;50.676;7.838;2022-12-10T08:17:20;72.43;;;27.75;;
54935;SDS011;40838;50.676;7.838;2022-12-10T08:19:48;70.13;;;26.52;;
54935;SDS011;40838;50.676;7.838;2022-12-10T08:22:18;66.28;;;26.90;;
54935;SDS011;40838;50.676;7.838;2022-12-10T08:24:45;65.47;;;26.15;;
54935;SDS011;40838;50.676;7.838;2022-12-10T08:27:12;57.72;;;24.17;;
54935;SDS011;40838;50.676;7.838;2022-12-10T08:29:39;50.50;;;20.13;;
54935;SDS011;40838;50.676;7.838;2022-12-10T08:32:06;63.30;;;24.52;;
54935;SDS011;40838;50.676;7.838;2022-12-10T08:34:33;55.85;;;22.48;;
54935;SDS011;40838;50.676;7.838;2022-12-10T08:37:01;64.88;;;26.05;;
54935;SDS011;40838;50.676;7.838;2022-12-10T08:39:28;59.90;;;25.40;;
54935;SDS011;40838;50.676;7.838;2022-12-10T08:41:55;45.30;;;19.88;;
54935;SDS011;40838;50.676;7.838;2022-12-10T08:44:21;29.45;;;13.35;;
54935;SDS011;40838;50.676;7.838;2022-12-10T08:46:48;39.78;;;17.30;;
54935;SDS011;40838;50.676;7.838;2022-12-10T08:49:15;32.92;;;15.48;;
54935;SDS011;40838;50.676;7.838;2022-12-10T08:51:42;48.33;;;20.13;;
54935;SDS011;40838;50.676;7.838;2022-12-10T08:54:10;41.40;;;17.48;;
54935;SDS011;40838;50.676;7.838;2022-12-10T08:56:37;50.15;;;19.73;;
54935;SDS011;40838;50.676;7.838;2022-12-10T08:59:05;45.72;;;19.60;;
54935;SDS011;40838;50.676;7.838;2022-12-10T09:01:32;51.83;;;21.38;;
54935;SDS011;40838;50.676;7.838;2022-12-10T09:03:59;50.80;;;22.17;;
54935;SDS011;40838;50.676;7.838;2022-12-10T09:06:27;45.05;;;21.67;;
54935;SDS011;40838;50.676;7.838;2022-12-10T09:08:55;43.35;;;19.77;;
54935;SDS011;40838;50.676;7.838;2022-12-10T09:11:25;46.55;;;21.88;;
54935;SDS011;40838;50.676;7.838;2022-12-10T09:13:54;45.67;;;19.48;;
54935;SDS011;40838;50.676;7.838;2022-12-10T09:16:26;43.03;;;17.90;;
54935;SDS011;40838;50.676;7.838;2022-12-10T09:18:54;44.35;;;19.95;;
54935;SDS011;40838;50.676;7.838;2022-12-10T09:21:21;42.25;;;17.65;;
54935;SDS011;40838;50.676;7.838;2022-12-10T09:23:49;39.33;;;17.67;;
54935;SDS011;40838;50.676;7.838;2022-12-10T09:26:16;28.45;;;13.75;;
54935;SDS011;40838;50.676;7.838;2022-12-10T09:28:45;32.53;;;14.75;;
54935;SDS011;40838;50.676;7.838;2022-12-10T09:31:13;33.47;;;14.63;;
54935;SDS011;40838;50.676;7.838;2022-12-10T09:33:42;30.45;;;13.13;;
54935;SDS011;40838;50.676;7.838;2022-12-10T09:36:09;30.20;;;13.55;;
54935;SDS011;40838;50.676;7.838;2022-12-10T09:38:39;34.10;;;14.75;;
54935;SDS011;40838;50.676;7.838;2022-12-10T09:41:12;43.92;;;18.83;;
54935;SDS011;40838;50.676;7.838;2022-12-10T09:43:56;36.83;;;18.45;;
54935;SDS011;40838;50.676;7.838;2022-12-10T09:46:31;33.63;;;14.88;;
54935;SDS011;40838;50.676;7.838;2022-12-10T09:49:12;31.20;;;14.82;;
54935;SDS011;40838;50.676;7.838;2022-12-10T09:51:46;31.17;;;14.20;;
54935;SDS011;40838;50.676;7.838;2022-12-10T09:54:17;34.80;;;13.82;;
54935;SDS011;40838;50.676;7.838;2022-12-10T09:56:46;39.30;;;15.65;;
54935;SDS011;40838;50.676;7.838;2022-12-10T09:59:18;40.15;;;16.48;;
54935;SDS011;40838;50.676;7.838;2022-12-10T10:01:49;38.80;;;16.02;;
54935;SDS011;40838;50.676;7.838;2022-12-10T10:04:24;39.78;;;15.40;;
54935;SDS011;40838;50.676;7.838;2022-12-10T10:06:52;38.20;;;15.52;;
54935;SDS011;40838;50.676;7.838;2022-12-10T10:09:20;36.58;;;15.80;;
54935;SDS011;40838;50.676;7.838;2022-12-10T10:11:48;34.70;;;16.75;;
54935;SDS011;40838;50.676;7.838;2022-12-10T10:14:19;33.35;;;14.15;;
54935;SDS011;40838;50.676;7.838;2022-12-10T10:16:53;31.67;;;14.18;;
54935;SDS011;40838;50.676;7.838;2022-12-10T10:19:25;35.25;;;17.10;;
54935;SDS011;40838;50.676;7.838;2022-12-10T10:21:55;36.90;;;16.85;;
54935;SDS011;40838;50.676;7.838;2022-12-10T10:24:24;37.00;;;17.35;;
54935;SDS011;40838;50.676;7.838;2022-12-10T10:26:56;41.55;;;17.63;;
54935;SDS011;40838;50.676;7.838;2022-12-10T10:29:25;34.50;;;16.50;;
54935;SDS011;40838;50.676;7.838;2022-12-10T10:34:42;36.58;;;16.23;;
54935;SDS011;40838;50.676;7.838;2022-12-10T10:37:14;35.75;;;15.75;;
54935;SDS011;40838;50.676;7.838;2022-12-10T10:39:52;32.88;;;15.00;;
54935;SDS011;40838;50.676;7.838;2022-12-10T10:42:33;33.75;;;15.65;;
54935;SDS011;40838;50.676;7.838;2022-12-10T10:45:05;38.28;;;17.48;;
54935;SDS011;40838;50.676;7.838;2022-12-10T10:48:02;35.42;;;16.65;;
54935;SDS011;40838;50.676;7.838;2022-12-10T10:50:32;40.38;;;18.20;;
54935;SDS011;40838;50.676;7.838;2022-12-10T10:53:18;37.17;;;16.25;;
54935;SDS011;40838;50.676;7.838;2022-12-10T10:55:58;42.85;;;17.63;;
54935;SDS011;40838;50.676;7.838;2022-12-10T10:58:33;41.97;;;17.20;;
54935;SDS011;40838;50.676;7.838;2022-12-10T11:01:01;41.63;;;17.33;;
54935;SDS011;40838;50.676;7.838;2022-12-10T11:03:32;33.72;;;15.48;;
54935;SDS011;40838;50.676;7.838;2022-12-10T11:06:01;25.92;;;12.95;;
54935;SDS011;40838;50.676;7.838;2022-12-10T11:08:33;35.78;;;16.23;;
54935;SDS011;40838;50.676;7.838;2022-12-10T11:11:04;37.47;;;17.00;;
54935;SDS011;40838;50.676;7.838;2022-12-10T11:13:37;35.42;;;16.60;;
54935;SDS011;40838;50.676;7.838;2022-12-10T11:16:09;37.88;;;17.70;;
54935;SDS011;40838;50.676;7.838;2022-12-10T11:18:41;37.38;;;17.50;;
54935;SDS011;40838;50.676;7.838;2022-12-10T11:21:18;35.72;;;16.13;;
54935;SDS011;40838;50.676;7.838;2022-12-10T11:23:51;37.38;;;17.13;;
54935;SDS011;40838;50.676;7.838;2022-12-10T11:29:23;38.47;;;17.15;;
54935;SDS011;40838;50.676;7.838;2022-12-10T11:32:03;40.47;;;18.27;;
54935;SDS011;40838;50.676;7.838;2022-12-10T11:34:44;42.65;;;18.00;;
54935;SDS011;40838;50.676;7.838;2022-12-10T11:37:25;43.17;;;19.38;;
54935;SDS011;40838;50.676;7.838;2022-12-10T11:40:15;46.10;;;21.67;;
54935;SDS011;40838;50.676;7.838;2022-12-10T11:43:03;34.90;;;15.50;;
54935;SDS011;40838;50.676;7.838;2022-12-10T11:45:44;41.40;;;18.67;;
54935;SDS011;40838;50.676;7.838;2022-12-10T11:48:24;46.95;;;19.92;;
54935;SDS011;40838;50.676;7.838;2022-12-10T11:51:11;34.47;;;15.45;;
54935;SDS011;40838;50.676;7.838;2022-12-10T11:54:00;37.00;;;14.77;;
54935;SDS011;40838;50.676;7.838;2022-12-10T11:56:37;38.80;;;16.75;;
54935;SDS011;40838;50.676;7.838;2022-12-10T11:59:13;36.47;;;16.40;;
54935;SDS011;40838;50.676;7.838;2022-12-10T12:01:51;37.75;;;17.08;;
54935;SDS011;40838;50.676;7.838;2022-12-10T12:07:20;38.30;;;16.40;;
54935;SDS011;40838;50.676;7.838;2022-12-10T12:10:12;43.20;;;16.50;;
54935;SDS011;40838;50.676;7.838;2022-12-10T12:12:55;42.55;;;18.73;;
54935;SDS011;40838;50.676;7.838;2022-12-10T12:15:26;40.70;;;17.30;;
54935;SDS011;40838;50.676;7.838;2022-12-10T12:17:58;46.95;;;19.27;;
54935;SDS011;40838;50.676;7.838;2022-12-10T12:20:30;45.35;;;18.48;;
54935;SDS011;40838;50.676;7.838;2022-12-10T12:23:04;44.72;;;18.42;;
54935;SDS011;40838;50.676;7.838;2022-12-10T12:25:42;46.97;;;19.30;;
54935;SDS011;40838;50.676;7.838;2022-12-10T12:28:14;54.20;;;19.33;;
54935;SDS011;40838;50.676;7.838;2022-12-10T12:30:46;43.33;;;19.67;;
54935;SDS011;40838;50.676;7.838;2022-12-10T12:33:20;46.58;;;18.17;;
54935;SDS011;40838;50.676;7.838;2022-12-10T12:35:55;55.58;;;21.10;;
54935;SDS011;40838;50.676;7.838;2022-12-10T12:38:28;52.80;;;21.60;;
54935;SDS011;40838;50.676;7.838;2022-12-10T12:41:00;48.72;;;19.80;;
54935;SDS011;40838;50.676;7.838;2022-12-10T12:43:34;53.33;;;22.00;;
54935;SDS011;40838;50.676;7.838;2022-12-10T12:46:11;53.38;;;22.67;;
54935;SDS011;40838;50.676;7.838;2022-12-10T12:48:45;53.58;;;21.35;;
54935;SDS011;40838;50.676;7.838;2022-12-10T12:51:19;45.28;;;18.95;;
54935;SDS011;40838;50.676;7.838;2022-12-10T12:53:57;50.20;;;20.75;;
54935;SDS011;40838;50.676;7.838;2022-12-10T12:56:28;49.03;;;22.20;;
54935;SDS011;40838;50.676;7.838;2022-12-10T12:59:08;50.85;;;21.15;;
54935;SDS011;40838;50.676;7.838;2022-12-10T13:01:47;54.40;;;22.10;;
54935;SDS011;40838;50.676;7.838;2022-12-10T13:04:18;58.80;;;21.85;;
54935;SDS011;40838;50.676;7.838;2022-12-10T13:13:05;55.95;;;22.48;;
54935;SDS011;40838;50.676;7.838;2022-12-10T13:15:42;53.35;;;22.05;;
54935;SDS011;40838;50.676;7.838;2022-12-10T13:18:21;55.42;;;22.33;;
54935;SDS011;40838;50.676;7.838;2022-12-10T13:24:07;54.72;;;20.52;;
54935;SDS011;40838;50.676;7.838;2022-12-10T13:26:41;55.30;;;21.00;;
54935;SDS011;40838;50.676;7.838;2022-12-10T13:29:25;54.92;;;20.95;;
54935;SDS011;40838;50.676;7.838;2022-12-10T13:31:56;62.05;;;23.50;;
54935;SDS011;40838;50.676;7.838;2022-12-10T13:34:32;58.80;;;23.25;;
54935;SDS011;40838;50.676;7.838;2022-12-10T13:37:06;63.30;;;23.08;;
54935;SDS011;40838;50.676;7.838;2022-12-10T13:39:53;50.28;;;20.60;;
54935;SDS011;40838;50.676;7.838;2022-12-10T13:42:29;55.72;;;23.08;;
54935;SDS011;40838;50.676;7.838;2022-12-10T13:45:30;51.55;;;20.98;;
54935;SDS011;40838;50.676;7.838;2022-12-10T13:48:22;54.85;;;22.15;;
54935;SDS011;40838;50.676;7.838;2022-12-10T13:54:00;58.17;;;22.95;;
54935;SDS011;40838;50.676;7.838;2022-12-10T13:56:48;56.92;;;22.55;;
54935;SDS011;40838;50.676;7.838;2022-12-10T13:59:28;55.75;;;20.55;;
54935;SDS011;40838;50.676;7.838;2022-12-10T14:05:29;62.10;;;24.13;;
54935;SDS011;40838;50.676;7.838;2022-12-10T14:08:16;54.85;;;21.15;;
54935;SDS011;40838;50.676;7.838;2022-12-10T14:10:46;58.42;;;22.77;;
54935;SDS011;40838;50.676;7.838;2022-12-10T14:13:15;57.53;;;24.10;;
54935;SDS011;40838;50.676;7.838;2022-12-10T14:15:51;55.67;;;22.27;;
54935;SDS011;40838;50.676;7.838;2022-12-10T14:18:20;57.33;;;21.88;;
54935;SDS011;40838;50.676;7.838;2022-12-10T14:20:50;57.03;;;22.98;;
54935;SDS011;40838;50.676;7.838;2022-12-10T14:23:21;54.47;;;22.90;;
54935;SDS011;40838;50.676;7.838;2022-12-10T14:26:05;58.53;;;21.20;;
54935;SDS011;40838;50.676;7.838;2022-12-10T14:28:38;56.38;;;21.58;;
54935;SDS011;40838;50.676;7.838;2022-12-10T14:31:14;46.33;;;20.20;;
54935;SDS011;40838;50.676;7.838;2022-12-10T14:33:45;57.20;;;22.33;;
54935;SDS011;40838;50.676;7.838;2022-12-10T14:36:15;54.78;;;23.27;;
54935;SDS011;40838;50.676;7.838;2022-12-10T14:38:47;50.47;;;21.92;;
54935;SDS011;40838;50.676;7.838;2022-12-10T14:41:15;48.20;;;21.73;;
54935;SDS011;40838;50.676;7.838;2022-12-10T14:43:46;44.92;;;20.23;;
54935;SDS011;40838;50.676;7.838;2022-12-10T14:46:17;47.85;;;20.60;;
54935;SDS011;40838;50.676;7.838;2022-12-10T14:48:48;55.60;;;21.77;;
54935;SDS011;40838;50.676;7.838;2022-12-10T14:51:18;56.20;;;22.48;;
54935;SDS011;40838;50.676;7.838;2022-12-10T14:53:48;47.42;;;21.15;;
54935;SDS011;40838;50.676;7.838;2022-12-10T14:56:19;59.03;;;24.17;;
54935;SDS011;40838;50.676;7.838;2022-12-10T14:58:52;56.55;;;24.33;;
54935;SDS011;40838;50.676;7.838;2022-12-10T15:01:27;57.97;;;23.33;;
54935;SDS011;40838;50.676;7.838;2022-12-10T15:03:56;59.97;;;23.50;;
54935;SDS011;40838;50.676;7.838;2022-12-10T15:06:26;59.70;;;25.25;;
54935;SDS011;40838;50.676;7.838;2022-12-10T15:08:54;59.50;;;23.80;;
54935;SDS011;40838;50.676;7.838;2022-12-10T15:11:25;53.53;;;22.63;;
54935;SDS011;40838;50.676;7.838;2022-12-10T15:13:54;57.47;;;23.10;;